Time;durP1;ratioP1;P1;durP2;ratioP2;P2;SDS_P1;SDS_P2;PMS_P1;PMS_P2;Temp;Humidity;BMP_temperature;BMP_pressure;BME280_temperature;BME280_humidity;BME280_pressure;Samples;Min_cycle;Max_cycle;Signal;HPM_P1;HPM_P2
2022/09/02 00:02:04;;;;;;;1.10;1.00;;;;;;;15.41;57.36;98368.25;6217210;23;20156;-87
2022/09/02 00:04:30;;;;;;;1.92;1.15;;;;;;;15.46;56.91;98367.53;6243248;23;20400;-88
2022/09/02 00:06:57;;;;;;;1.00;1.00;;;;;;;15.44;57.27;98357.19;6243840;23;20062;-83
2022/09/02 00:09:26;;;;;;;2.35;1.30;;;;;;;15.31;57.29;98367.16;6242967;23;20434;-86
2022/09/02 00:11:54;;;;;;;1.30;1.20;;;;;;;15.28;57.93;98357.81;6243477;23;20015;-86
2022/09/02 00:14:31;;;;;;;1.30;1.20;;;;;;;15.31;57.82;98372.44;6242590;23;20016;-86
2022/09/02 00:16:59;;;;;;;0.82;0.82;;;;;;;15.26;57.78;98373.91;6243209;23;20020;-86
2022/09/02 00:19:29;;;;;;;1.00;1.00;;;;;;;15.27;58.30;98364.94;6215945;23;20040;-86
2022/09/02 00:21:57;;;;;;;0.90;0.90;;;;;;;15.27;58.25;98359.66;6191420;23;20020;-85
2022/09/02 00:24:25;;;;;;;0.90;0.90;;;;;;;15.27;58.53;98366.78;6217020;23;20031;-86
2022/09/02 00:26:52;;;;;;;0.80;0.80;;;;;;;15.25;59.56;98368.84;6242759;22;20016;-86
2022/09/02 00:29:24;;;;;;;2.33;1.05;;;;;;;15.11;59.01;98367.38;6242545;22;20087;-86
2022/09/02 00:31:51;;;;;;;2.45;1.10;;;;;;;15.06;59.73;98370.72;6241428;23;20020;-86
2022/09/02 00:34:19;;;;;;;1.30;1.20;;;;;;;14.93;59.82;98361.09;6240888;23;20016;-86
2022/09/02 00:36:46;;;;;;;0.90;0.90;;;;;;;14.88;59.82;98357.50;6242569;22;20028;-88
2022/09/02 00:39:13;;;;;;;1.85;1.10;;;;;;;14.71;60.27;98342.25;6215617;23;20548;-85
2022/09/02 00:41:41;;;;;;;0.80;0.80;;;;;;;14.82;59.99;98353.91;6242606;22;20031;-86
2022/09/02 00:44:16;;;;;;;0.80;0.80;;;;;;;14.82;59.49;98358.41;6240788;23;20023;-87
2022/09/02 00:46:46;;;;;;;0.80;0.80;;;;;;;14.82;59.64;98356.56;6242464;22;20066;-85
2022/09/02 00:49:24;;;;;;;1.02;0.93;;;;;;;14.84;59.12;98354.50;6241401;23;20016;-85
2022/09/02 00:52:16;;;;;;;1.15;1.00;;;;;;;14.78;59.81;98357.22;6242591;22;20069;-85
2022/09/02 00:54:58;;;;;;;1.10;1.00;;;;;;;14.75;59.82;98357.63;6237260;22;20016;-86
2022/09/02 00:57:35;;;;;;;1.45;1.00;;;;;;;14.69;60.52;98352.25;6242775;22;20077;-86
2022/09/02 01:00:20;;;;;;;0.90;0.90;;;;;;;14.73;60.83;98356.03;6242594;22;20020;-85
2022/09/02 01:02:54;;;;;;;1.45;1.05;;;;;;;14.68;60.14;98355.06;6242317;22;20043;-85
2022/09/02 01:05:26;;;;;;;1.35;1.00;;;;;;;14.70;58.59;98353.84;6242310;23;20394;-85
2022/09/02 01:07:54;;;;;;;0.90;0.90;;;;;;;14.69;59.45;98354.88;6241449;23;20016;-85
2022/09/02 01:10:32;;;;;;;1.00;1.00;;;;;;;14.58;59.87;98347.69;6240763;23;20515;-85
2022/09/02 01:13:08;;;;;;;2.83;1.13;;;;;;;14.47;59.41;98340.47;6243060;22;20020;-85
2022/09/02 01:15:52;;;;;;;1.00;0.90;;;;;;;14.54;60.67;98346.50;6215214;23;20465;-85
2022/09/02 01:18:24;;;;;;;0.93;0.93;;;;;;;14.54;59.66;98345.69;6242024;22;20099;-85
2022/09/02 01:20:51;;;;;;;0.90;0.90;;;;;;;14.52;60.23;98348.56;6242584;22;20046;-85
2022/09/02 01:23:18;;;;;;;1.27;0.90;;;;;;;14.59;60.34;98338.72;6240655;23;20499;-85
2022/09/02 01:25:47;;;;;;;0.90;0.90;;;;;;;14.61;59.79;98339.31;6242379;22;20032;-85
2022/09/02 01:28:17;;;;;;;0.90;0.90;;;;;;;14.66;60.79;98333.38;6242425;23;20020;-86
2022/09/02 01:30:49;;;;;;;0.90;0.90;;;;;;;14.69;59.66;98344.31;6216718;23;20019;-87
2022/09/02 01:33:19;;;;;;;1.13;1.00;;;;;;;14.72;59.33;98335.13;6216035;23;20052;-86
2022/09/02 01:35:48;;;;;;;0.80;0.80;;;;;;;14.70;59.14;98332.72;6242490;23;20103;-87
2022/09/02 01:38:15;;;;;;;1.67;0.88;;;;;;;14.68;59.64;98328.66;6242411;23;20023;-86
2022/09/02 01:40:42;;;;;;;0.80;0.80;;;;;;;14.69;60.48;98333.75;6242614;23;20016;-85
2022/09/02 01:43:14;;;;;;;0.90;0.73;;;;;;;14.66;60.70;98334.19;6241995;23;20087;-85
2022/09/02 01:45:45;;;;;;;1.20;1.10;;;;;;;14.55;60.97;98334.91;6242620;23;20038;-86
2022/09/02 01:48:13;;;;;;;0.95;0.90;;;;;;;14.49;60.78;98338.41;6242474;23;20460;-86
2022/09/02 01:50:53;;;;;;;1.02;0.95;;;;;;;14.43;61.07;98333.97;6242516;23;20020;-85
2022/09/02 01:53:21;;;;;;;0.90;0.90;;;;;;;14.38;61.06;98325.91;6210707;23;20384;-85
2022/09/02 01:56:06;;;;;;;0.88;0.88;;;;;;;14.41;61.37;98325.50;6242079;23;20078;-85
2022/09/02 01:58:52;;;;;;;1.00;1.00;;;;;;;14.40;61.21;98326.53;6219552;23;20050;-85
2022/09/02 02:01:29;;;;;;;0.98;0.93;;;;;;;14.38;60.27;98328.53;6218233;23;20039;-85
2022/09/02 02:03:56;;;;;;;0.90;0.90;;;;;;;14.44;61.38;98325.84;6215662;23;20458;-85
2022/09/02 02:06:22;;;;;;;1.83;0.90;;;;;;;14.42;61.39;98327.09;6214976;23;20012;-85
2022/09/02 02:08:51;;;;;;;0.98;0.95;;;;;;;14.39;60.49;98322.25;6217376;23;20044;-85
2022/09/02 02:11:24;;;;;;;1.45;1.00;;;;;;;14.41;59.71;98325.50;6244049;23;20391;-85
2022/09/02 02:13:51;;;;;;;2.50;1.10;;;;;;;14.43;60.36;98326.06;6244825;23;20016;-85
2022/09/02 02:16:18;;;;;;;1.10;1.10;;;;;;;14.38;59.90;98320.63;6244202;23;20036;-85
2022/09/02 02:18:44;;;;;;;1.17;1.10;;;;;;;14.27;59.81;98316.06;6243582;23;20020;-84
2022/09/02 02:21:11;;;;;;;1.23;1.10;;;;;;;14.25;60.24;98318.13;6243756;23;20019;-84
2022/09/02 02:23:38;;;;;;;0.90;0.90;;;;;;;14.33;61.51;98323.91;6244175;23;20016;-84
2022/09/02 02:26:05;;;;;;;0.80;0.80;;;;;;;14.38;60.27;98315.34;6243359;22;20376;-85
2022/09/02 02:28:32;;;;;;;1.60;0.80;;;;;;;14.40;61.03;98318.59;6217246;23;20016;-84
2022/09/02 02:30:59;;;;;;;0.88;0.88;;;;;;;14.41;60.65;98314.94;6244592;23;20016;-85
2022/09/02 02:33:30;;;;;;;1.30;0.70;;;;;;;14.45;61.40;98316.09;6217695;23;20345;-85
2022/09/02 02:36:04;;;;;;;1.20;1.17;;;;;;;14.19;61.41;98322.44;6244040;23;20038;-84
2022/09/02 02:38:33;;;;;;;0.80;0.80;;;;;;;14.25;61.43;98310.22;6244182;23;20047;-84
2022/09/02 02:41:01;;;;;;;1.20;1.10;;;;;;;14.30;61.54;98313.81;6216929;23;20020;-84
2022/09/02 02:43:27;;;;;;;1.05;0.90;;;;;;;14.32;62.21;98311.75;6217739;23;20464;-85
2022/09/02 02:45:54;;;;;;;0.70;0.70;;;;;;;14.34;61.37;98319.47;6243193;23;20015;-84
2022/09/02 02:48:21;;;;;;;0.95;0.85;;;;;;;14.35;61.75;98307.91;6216985;23;20027;-86
2022/09/02 02:50:48;;;;;;;0.70;0.70;;;;;;;14.33;61.99;98308.09;6244441;23;20464;-85
2022/09/02 02:53:16;;;;;;;0.75;0.70;;;;;;;14.31;61.46;98311.97;6240091;23;20074;-85
2022/09/02 02:55:49;;;;;;;1.00;0.80;;;;;;;14.34;61.95;98314.19;6243300;23;20039;-84
2022/09/02 02:58:17;;;;;;;0.77;0.77;;;;;;;14.20;61.65;98303.75;6243367;23;20066;-85
2022/09/02 03:00:45;;;;;;;1.40;1.30;;;;;;;14.14;61.67;98307.25;6243415;23;20020;-85
2022/09/02 03:03:18;;;;;;;1.40;1.30;;;;;;;14.01;61.70;98304.75;6244190;23;20028;-85
2022/09/02 03:05:46;;;;;;;1.58;1.48;;;;;;;13.80;62.23;98307.78;6243912;23;20016;-84
2022/09/02 03:08:15;;;;;;;2.80;1.45;;;;;;;13.70;63.15;98304.81;6216538;23;20042;-84
2022/09/02 03:10:42;;;;;;;1.63;1.40;;;;;;;13.57;63.82;98298.59;6244389;23;20020;-86
2022/09/02 03:13:10;;;;;;;1.20;1.10;;;;;;;13.72;64.39;98295.66;6244380;23;20023;-84
2022/09/02 03:15:38;;;;;;;1.05;0.95;;;;;;;13.81;64.45;98302.28;6243705;23;20016;-85
2022/09/02 03:18:06;;;;;;;1.10;1.00;;;;;;;13.81;64.11;98296.22;6243242;23;20377;-84
2022/09/02 03:20:33;;;;;;;1.17;1.08;;;;;;;13.75;63.66;98304.97;6191660;23;20354;-84
2022/09/02 03:23:02;;;;;;;1.23;0.90;;;;;;;13.74;64.23;98295.47;6243979;23;20016;-85
2022/09/02 03:25:32;;;;;;;1.35;1.10;;;;;;;13.79;65.10;98306.94;6243931;22;20388;-85
2022/09/02 03:28:02;;;;;;;0.70;0.70;;;;;;;13.81;65.14;98296.22;6243635;23;20030;-84
2022/09/02 03:30:32;;;;;;;0.80;0.80;;;;;;;13.84;64.43;98303.66;6217816;23;20035;-85
2022/09/02 03:33:00;;;;;;;0.65;0.65;;;;;;;13.86;64.12;98302.44;6244082;23;20400;-85
2022/09/02 03:35:30;;;;;;;0.90;0.90;;;;;;;13.81;64.75;98296.22;6243673;23;20377;-85
2022/09/02 03:37:59;;;;;;;0.80;0.80;;;;;;;13.81;64.38;98301.47;6217145;23;20364;-85
2022/09/02 03:40:27;;;;;;;1.33;1.00;;;;;;;13.66;63.99;98296.50;6243638;23;20028;-84
2022/09/02 03:42:55;;;;;;;1.10;1.00;;;;;;;13.69;64.05;98300.56;6242821;23;20030;-84
2022/09/02 03:45:27;;;;;;;0.73;0.73;;;;;;;13.68;65.10;98294.47;6243649;23;20020;-85
2022/09/02 03:47:54;;;;;;;1.33;1.23;;;;;;;13.52;64.45;98280.00;6190627;23;20397;-84
2022/09/02 03:50:30;;;;;;;1.35;1.25;;;;;;;13.42;65.36;98284.91;6243635;23;20016;-84
2022/09/02 03:52:59;;;;;;;1.50;1.40;;;;;;;13.32;65.37;98284.59;6239560;23;20020;-84
2022/09/02 03:55:31;;;;;;;1.60;1.50;;;;;;;13.19;65.53;98279.34;6242623;23;20066;-84
2022/09/02 03:57:58;;;;;;;1.48;1.15;;;;;;;13.22;65.55;98289.50;6243832;23;20020;-84
2022/09/02 04:00:30;;;;;;;0.95;0.93;;;;;;;13.26;66.21;98288.88;6242872;23;20016;-85
2022/09/02 04:03:00;;;;;;;1.13;1.02;;;;;;;13.28;66.01;98281.56;6243560;23;20019;-84
2022/09/02 04:05:27;;;;;;;1.10;1.00;;;;;;;13.25;65.99;98281.16;6216878;23;20020;-84
2022/09/02 04:07:55;;;;;;;1.25;1.15;;;;;;;13.26;65.21;98285.44;6242387;23;20048;-85
2022/09/02 04:10:23;;;;;;;1.60;1.50;;;;;;;13.16;65.86;98290.31;6242874;23;20414;-84
2022/09/02 04:12:51;;;;;;;1.45;1.33;;;;;;;13.06;65.33;98286.31;6217147;23;20027;-84
2022/09/02 04:15:18;;;;;;;2.75;1.50;;;;;;;12.88;66.52;98288.84;6242824;23;20046;-85
2022/09/02 04:21:31;;;;;;;1.08;1.02;;;;;;;12.98;67.28;98285.75;6243702;23;20341;-85
2022/09/02 04:23:57;;;;;;;0.82;0.82;;;;;;;13.04;68.25;98282.28;6243331;22;20383;-85
2022/09/02 04:26:24;;;;;;;0.93;0.93;;;;;;;13.08;67.41;98294.81;6242706;23;20066;-85
2022/09/02 04:28:52;;;;;;;1.45;1.15;;;;;;;13.04;67.05;98291.00;6242659;23;20070;-84
2022/09/02 04:31:24;;;;;;;1.13;1.10;;;;;;;12.95;67.95;98292.22;6216401;23;20070;-83
2022/09/02 04:33:53;;;;;;;1.40;1.30;;;;;;;12.93;67.96;98302.19;6242401;23;20051;-83
2022/09/02 04:36:21;;;;;;;0.90;0.90;;;;;;;12.98;67.73;98294.47;6215782;23;20012;-84
2022/09/02 04:38:51;;;;;;;1.30;1.20;;;;;;;12.96;68.01;98291.25;6216798;23;20310;-83
2022/09/02 04:41:25;;;;;;;1.23;1.20;;;;;;;12.95;68.12;98289.59;6242537;23;20016;-85
2022/09/02 04:43:55;;;;;;;1.00;1.00;;;;;;;13.00;68.60;98284.53;6242305;23;20066;-84
2022/09/02 04:46:23;;;;;;;1.53;1.40;;;;;;;12.94;67.96;98290.63;6242851;23;20035;-84
2022/09/02 04:49:01;;;;;;;1.15;1.10;;;;;;;12.98;68.36;98294.47;6243264;23;20459;-84
2022/09/02 04:51:29;;;;;;;1.42;1.10;;;;;;;12.88;68.30;98294.09;6243134;23;20016;-84
2022/09/02 04:53:56;;;;;;;1.08;1.00;;;;;;;12.83;68.27;98296.53;6238934;23;20051;-84
2022/09/02 04:56:27;;;;;;;1.33;1.23;;;;;;;12.81;68.31;98298.59;6241947;23;20027;-84
2022/09/02 04:58:55;;;;;;;1.23;1.20;;;;;;;12.77;68.49;98292.13;6215422;23;20392;-84
2022/09/02 05:01:27;;;;;;;1.50;1.40;;;;;;;12.74;69.09;98303.06;6242328;23;20262;-84
2022/09/02 05:03:54;;;;;;;1.67;1.58;;;;;;;12.63;69.35;98299.25;6241926;23;20095;-84
2022/09/02 05:06:25;;;;;;;1.70;1.60;;;;;;;12.64;69.70;98298.22;6242509;23;20032;-84
2022/09/02 05:08:55;;;;;;;1.10;1.10;;;;;;;12.79;70.67;98304.06;6242162;23;20047;-84
2022/09/02 05:11:28;;;;;;;1.20;1.10;;;;;;;12.92;70.22;98303.19;6215467;23;20016;-84
2022/09/02 05:13:58;;;;;;;0.90;0.90;;;;;;;12.93;69.48;98310.06;6242922;23;20016;-84
2022/09/02 05:16:31;;;;;;;0.82;0.82;;;;;;;13.06;69.80;98310.00;6241498;23;20495;-84
2022/09/02 05:18:59;;;;;;;0.80;0.80;;;;;;;13.10;69.17;98311.22;6243638;23;20016;-84
2022/09/02 05:21:25;;;;;;;1.08;1.02;;;;;;;13.13;70.05;98312.59;6242630;23;20092;-84
2022/09/02 05:23:52;;;;;;;1.20;1.10;;;;;;;13.09;68.20;98314.06;6241863;23;20016;-84
2022/09/02 05:26:20;;;;;;;1.13;1.10;;;;;;;13.19;69.39;98316.22;6241335;23;20013;-84
2022/09/02 05:28:48;;;;;;;2.78;1.20;;;;;;;13.08;68.40;98305.34;6242646;23;20020;-84
2022/09/02 05:31:18;;;;;;;1.40;1.30;;;;;;;12.97;68.48;98303.38;6215568;23;20020;-84
2022/09/02 05:33:46;;;;;;;1.30;1.20;;;;;;;13.06;69.32;98306.56;6242204;23;20074;-84
2022/09/02 05:36:17;;;;;;;2.75;1.48;;;;;;;13.01;69.52;98307.19;6242259;23;20016;-85
2022/09/02 05:38:45;;;;;;;2.92;1.50;;;;;;;12.94;68.71;98313.50;6242642;23;20016;-84
2022/09/02 05:41:16;;;;;;;1.40;1.30;;;;;;;13.04;69.09;98314.69;6242312;23;20520;-85
2022/09/02 05:43:44;;;;;;;1.60;1.50;;;;;;;12.98;69.33;98314.72;6244289;23;20020;-84
2022/09/02 05:46:16;;;;;;;1.60;1.50;;;;;;;13.01;69.25;98317.72;6217694;23;20314;-83
2022/09/02 05:51:58;;;;;;;1.38;1.27;;;;;;;13.20;68.69;98305.50;6244044;23;20020;-84
2022/09/02 05:54:32;;;;;;;1.92;1.65;;;;;;;13.15;68.92;98310.59;6212664;23;20016;-84
2022/09/02 05:57:08;;;;;;;1.63;1.40;;;;;;;13.12;68.04;98311.81;6244543;23;20012;-84
2022/09/02 05:59:40;;;;;;;2.10;1.38;;;;;;;13.28;67.48;98309.75;6243852;23;20020;-84
2022/09/02 06:02:10;;;;;;;1.73;1.63;;;;;;;13.28;68.00;98315.00;6216817;23;20070;-84
2022/09/02 06:04:44;;;;;;;1.80;1.70;;;;;;;13.28;68.07;98309.75;6244009;23;20406;-84
2022/09/02 06:07:13;;;;;;;1.60;1.50;;;;;;;13.35;68.25;98311.31;6243581;23;20310;-84
2022/09/02 06:09:43;;;;;;;2.05;1.60;;;;;;;13.50;68.54;98318.13;6217329;23;20051;-84
2022/09/02 06:12:17;;;;;;;3.23;2.20;;;;;;;13.50;67.95;98316.28;6243836;23;20020;-84
2022/09/02 06:14:44;;;;;;;2.13;1.92;;;;;;;13.51;68.32;98310.00;6236651;23;20723;-86
2022/09/02 06:17:11;;;;;;;2.80;1.70;;;;;;;13.73;67.56;98312.25;6219222;23;20027;-87
2022/09/02 06:19:38;;;;;;;2.85;1.90;;;;;;;13.75;66.79;98315.50;6243291;23;20024;-85
2022/09/02 06:22:06;;;;;;;2.17;1.50;;;;;;;13.91;67.35;98314.97;6216737;23;20024;-84
2022/09/02 06:24:32;;;;;;;3.20;2.10;;;;;;;14.01;66.74;98312.66;6224313;22;20024;-84
2022/09/02 06:27:00;;;;;;;2.15;1.95;;;;;;;14.18;66.13;98321.63;6274299;22;20043;-85
2022/09/02 06:29:28;;;;;;;1.83;1.73;;;;;;;14.34;65.72;98324.75;6274055;22;20016;-84
2022/09/02 06:31:55;;;;;;;3.42;1.60;;;;;;;14.43;64.88;98310.22;6247655;22;20456;-85
2022/09/02 06:34:25;;;;;;;2.33;1.70;;;;;;;14.64;64.80;98319.59;6274055;22;20345;-85
2022/09/02 06:36:52;;;;;;;3.33;1.93;;;;;;;14.79;66.01;98322.66;6273964;22;20019;-84
2022/09/02 06:39:22;;;;;;;1.77;1.67;;;;;;;14.84;64.94;98300.88;6273543;22;20077;-84
2022/09/02 06:41:49;;;;;;;1.60;1.50;;;;;;;15.09;64.16;98317.41;6246933;22;20015;-84
2022/09/02 06:44:20;;;;;;;1.88;1.67;;;;;;;15.31;62.49;98317.75;6247040;22;20077;-85
2022/09/02 06:46:52;;;;;;;;;;;;;;;15.59;64.02;98313.69;6274056;22;20077;-84
2022/09/02 06:49:22;;;;;;;1.88;1.45;;;;;;;15.81;61.32;98308.72;6273729;22;19922;-84
2022/09/02 06:51:52;;;;;;;2.92;1.55;;;;;;;15.93;62.25;98312.16;6273930;22;20444;-86
2022/09/02 06:54:21;;;;;;;;;;;;;;;16.22;61.16;98316.56;6269489;22;20387;-84
2022/09/02 06:56:50;;;;;;;1.75;1.60;;;;;;;16.50;60.38;98312.41;6273123;22;19965;-84
2022/09/02 06:59:19;;;;;;;1.63;1.52;;;;;;;16.64;60.00;98319.06;6246284;22;20067;-85
2022/09/02 07:01:47;;;;;;;1.65;1.45;;;;;;;16.62;59.80;98315.84;6274147;22;20070;-84
2022/09/02 07:07:05;;;;;;;1.77;1.38;;;;;;;16.90;57.47;98311.66;6247096;22;20012;-84
2022/09/02 07:09:31;;;;;;;1.30;1.10;;;;;;;17.13;58.13;98311.59;6247062;22;20463;-86
2022/09/02 07:12:02;;;;;;;1.58;1.10;;;;;;;17.34;54.79;98310.13;6274565;22;20027;-85
2022/09/02 07:14:37;;;;;;;1.05;1.05;;;;;;;17.62;57.29;98309.28;6273841;22;20016;-86
2022/09/02 07:17:06;;;;;;;1.30;1.20;;;;;;;17.78;55.45;98310.38;6274226;22;20081;-85
2022/09/02 07:19:33;;;;;;;1.40;1.30;;;;;;;17.95;55.67;98302.41;6248278;22;20043;-87
2022/09/02 07:22:04;;;;;;;1.13;1.05;;;;;;;18.18;54.29;98307.56;6223933;22;20439;-87
2022/09/02 07:24:33;;;;;;;1.88;1.42;;;;;;;18.20;54.08;98302.78;6242241;23;20016;-86
2022/09/02 07:27:06;;;;;;;1.52;1.42;;;;;;;18.09;52.46;98293.88;6247643;23;20087;-87
2022/09/02 07:30:03;;;;;;;;;;;;;;;;;;;;;
2022/09/02 07:32:36;;;;;;;1.52;1.20;;;;;;;18.25;52.91;98292.25;6245412;23;20438;-88
2022/09/02 07:35:08;;;;;;;1.25;1.10;;;;;;;18.29;52.23;98297.84;6218345;23;20030;-89
2022/09/02 07:37:36;;;;;;;1.20;1.10;;;;;;;18.40;52.36;98305.72;6193438;23;20091;-86
2022/09/02 07:40:09;;;;;;;1.13;1.13;;;;;;;18.57;52.06;98300.38;6247756;23;20031;-92
2022/09/02 07:42:41;;;;;;;1.63;1.20;;;;;;;18.74;50.37;98300.34;6218561;23;20024;-87
2022/09/02 07:45:12;;;;;;;1.55;1.17;;;;;;;18.94;50.79;98300.59;6224294;23;20111;-92
2022/09/02 07:47:39;;;;;;;1.15;0.98;;;;;;;19.30;50.33;98311.59;6218437;23;20008;-87
2022/09/02 07:50:08;;;;;;;1.17;1.08;;;;;;;19.44;49.53;98310.16;6243103;23;20567;-86
2022/09/02 07:52:47;;;;;;;1.95;1.10;;;;;;;19.72;49.47;98305.66;6239997;23;20027;-87
2022/09/02 07:55:23;;;;;;;2.35;1.30;;;;;;;19.79;48.11;98303.56;6244200;23;20020;-87
2022/09/02 07:57:53;;;;;;;1.45;1.35;;;;;;;19.76;47.66;98301.44;6243579;23;20012;-86
2022/09/02 08:00:21;;;;;;;2.55;1.60;;;;;;;19.68;47.22;98297.38;6191261;23;20441;-86
2022/09/02 08:02:51;;;;;;;1.87;1.30;;;;;;;19.66;47.25;98296.00;6193454;23;20103;-85
2022/09/02 08:05:18;;;;;;;1.23;1.13;;;;;;;19.81;46.98;98304.13;6191596;23;20262;-87
2022/09/02 08:07:44;;;;;;;1.45;1.30;;;;;;;19.67;47.13;98286.97;6217073;23;20048;-88
2022/09/02 08:10:13;;;;;;;1.67;1.23;;;;;;;19.82;48.03;98294.28;6216532;23;20515;-87
2022/09/02 08:12:42;;;;;;;2.50;1.20;;;;;;;20.07;48.03;98301.66;6192279;23;20016;-86
2022/09/02 08:15:11;;;;;;;1.20;1.10;;;;;;;20.13;47.55;98285.47;6217904;23;20101;-89
2022/09/02 08:17:42;;;;;;;1.52;1.42;;;;;;;20.14;46.08;98283.59;6244439;23;20012;-86
2022/09/02 08:20:12;;;;;;;1.25;1.15;;;;;;;20.45;45.72;98298.75;6243435;23;20030;-87
2022/09/02 08:22:39;;;;;;;1.40;1.30;;;;;;;20.52;45.26;98298.50;6216465;23;20071;-88
2022/09/02 08:25:08;;;;;;;1.85;1.42;;;;;;;20.59;45.05;98296.41;6218015;23;20338;-87
2022/09/02 08:27:36;;;;;;;1.23;1.13;;;;;;;20.68;44.76;98283.38;6245534;23;20012;-88
2022/09/02 08:30:08;;;;;;;1.25;1.15;;;;;;;20.83;43.76;98294.13;6217788;23;20334;-85
2022/09/02 08:32:40;;;;;;;2.65;1.17;;;;;;;20.84;44.60;98290.38;6216869;23;20020;-85
2022/09/02 08:35:08;;;;;;;1.50;1.05;;;;;;;21.01;44.19;98301.63;6243874;23;20020;-87
2022/09/02 08:37:37;;;;;;;1.55;1.08;;;;;;;21.01;44.14;98284.84;6216881;23;20078;-85
2022/09/02 08:40:12;;;;;;;1.27;1.20;;;;;;;21.02;43.06;98281.91;6217235;23;20020;-88
2022/09/02 08:42:49;;;;;;;1.30;1.20;;;;;;;21.09;43.47;98287.00;6216129;23;20016;-90
2022/09/02 08:45:29;;;;;;;1.40;1.30;;;;;;;21.20;43.28;98293.16;6193842;23;20051;-86
2022/09/02 08:48:01;;;;;;;1.73;1.13;;;;;;;21.27;42.63;98283.03;6244532;23;20338;-87
2022/09/02 08:50:31;;;;;;;1.27;1.17;;;;;;;21.31;42.91;98276.13;6217201;23;20020;-86
2022/09/02 08:53:23;;;;;;;1.63;1.33;;;;;;;21.47;42.24;98269.75;6212981;23;20675;-91
2022/09/02 08:55:55;;;;;;;1.58;1.15;;;;;;;21.44;41.89;98270.28;6242594;23;20020;-85
2022/09/02 08:58:29;;;;;;;1.38;1.27;;;;;;;21.54;40.88;98272.97;6243150;23;20458;-89
2022/09/02 09:01:24;;;;;;;2.38;1.30;;;;;;;21.44;41.32;98274.81;6243872;23;20091;-87
2022/09/02 09:04:44;;;;;;;1.02;0.95;;;;;;;21.49;40.41;98267.63;6245411;23;20016;-88
2022/09/02 09:07:23;;;;;;;1.92;1.13;;;;;;;21.61;39.71;98276.16;6216490;23;20020;-85
2022/09/02 09:10:25;;;;;;;1.00;1.00;;;;;;;21.64;39.49;98272.16;6242106;23;20627;-87
2022/09/02 09:13:14;;;;;;;1.05;1.00;;;;;;;21.79;39.50;98268.69;6241595;23;20020;-86
2022/09/02 09:16:06;;;;;;;4.88;1.33;;;;;;;21.74;37.93;98256.16;6242681;23;20067;-84
2022/09/02 09:18:41;;;;;;;1.02;1.02;;;;;;;21.95;38.06;98267.63;6214487;23;20019;-84
2022/09/02 09:21:09;;;;;;;1.25;1.15;;;;;;;21.98;37.35;98255.59;6242254;23;20592;-86
2022/09/02 09:23:39;;;;;;;1.48;1.08;;;;;;;21.92;38.05;98268.13;6241649;23;20508;-84
2022/09/02 09:26:17;;;;;;;1.58;1.20;;;;;;;21.89;37.45;98268.66;6241638;22;20048;-86
2022/09/02 09:28:48;;;;;;;1.75;1.10;;;;;;;21.87;37.42;98262.81;6242247;23;20016;-85
2022/09/02 09:31:20;;;;;;;1.20;1.10;;;;;;;21.84;37.28;98247.34;6243004;23;20016;-87
2022/09/02 09:34:01;;;;;;;1.48;0.93;;;;;;;22.16;38.13;98257.72;6241545;23;20024;-86
2022/09/02 09:36:40;;;;;;;1.00;1.00;;;;;;;22.42;37.61;98256.56;6214746;23;20020;-83
2022/09/02 09:39:21;;;;;;;2.00;1.00;;;;;;;22.43;35.77;98252.03;6241892;23;20067;-89
2022/09/02 09:41:49;;;;;;;0.93;0.93;;;;;;;22.43;36.13;98249.34;6241054;23;20027;-85
2022/09/02 09:44:36;;;;;;;1.35;1.00;;;;;;;22.23;36.63;98246.75;6215553;23;20028;-86
2022/09/02 09:47:13;;;;;;;1.00;1.00;;;;;;;22.25;35.37;98249.94;6215122;23;20012;-83
2022/09/02 09:49:46;;;;;;;1.10;1.00;;;;;;;22.23;36.75;98242.19;6239024;23;20016;-80
2022/09/02 09:52:28;;;;;;;0.90;0.82;;;;;;;22.50;35.94;98247.22;6241347;23;20016;-81
2022/09/02 09:55:13;;;;;;;1.30;0.70;;;;;;;22.80;35.71;98232.09;6235967;23;20063;-80
2022/09/02 09:57:44;;;;;;;0.95;0.90;;;;;;;22.92;34.17;98232.59;6239241;23;20032;-79
2022/09/02 10:00:33;;;;;;;1.35;1.00;;;;;;;23.11;34.11;98230.88;6239733;23;20024;-81
2022/09/02 10:03:05;;;;;;;1.20;0.95;;;;;;;23.17;33.25;98228.97;6240481;23;20023;-78
2022/09/02 10:05:39;;;;;;;1.17;1.08;;;;;;;22.86;33.61;98221.09;6242049;23;20392;-79
2022/09/02 10:08:22;;;;;;;0.88;0.82;;;;;;;22.92;33.90;98221.91;6239918;23;20028;-80
2022/09/02 10:10:57;;;;;;;0.90;0.90;;;;;;;22.94;33.92;98217.06;6239445;23;20032;-81
2022/09/02 10:13:32;;;;;;;1.00;0.90;;;;;;;23.19;34.16;98222.25;6239652;23;20023;-80
2022/09/02 10:16:11;;;;;;;1.25;0.80;;;;;;;23.21;33.24;98219.28;6213661;23;20039;-80
2022/09/02 10:18:47;;;;;;;1.55;0.85;;;;;;;23.10;32.38;98215.91;6239045;23;20017;-82
2022/09/02 10:21:42;;;;;;;1.30;1.10;;;;;;;23.05;31.97;98223.97;6239828;23;20028;-78
2022/09/02 10:25:06;;;;;;;1.00;0.98;;;;;;;23.06;31.04;98209.50;6240784;22;20438;-82
2022/09/02 10:28:12;;;;;;;1.08;0.85;;;;;;;23.05;31.92;98213.25;6228297;23;20020;-80
2022/09/02 10:31:12;;;;;;;0.90;0.90;;;;;;;23.13;31.07;98212.66;6219342;23;20134;-81
2022/09/02 10:34:07;;;;;;;1.27;0.80;;;;;;;23.14;32.42;98206.22;6242094;23;20030;-80
2022/09/02 10:37:16;;;;;;;0.88;0.88;;;;;;;23.28;32.20;98208.31;6242105;23;20438;-82
2022/09/02 10:40:15;;;;;;;0.88;0.80;;;;;;;23.58;33.58;98220.63;6215419;23;20373;-81
2022/09/02 10:43:06;;;;;;;1.15;1.00;;;;;;;23.54;32.27;98196.28;6241837;23;20024;-80
2022/09/02 10:45:35;;;;;;;0.80;0.80;;;;;;;23.82;33.45;98196.63;6241800;23;20052;-80
2022/09/02 10:48:23;;;;;;;1.30;0.98;;;;;;;23.78;32.49;98185.66;6214888;23;20049;-80
2022/09/02 10:51:15;;;;;;;0.98;0.90;;;;;;;23.87;32.76;98188.50;6241217;23;20016;-79
2022/09/02 10:54:09;;;;;;;0.98;0.93;;;;;;;24.07;32.94;98192.88;6236593;23;20013;-81
2022/09/02 10:56:49;;;;;;;0.88;0.88;;;;;;;24.15;34.03;98190.34;6241062;23;20077;-81
2022/09/02 10:59:31;;;;;;;1.13;1.00;;;;;;;24.13;33.01;98197.88;6241386;23;20012;-80
2022/09/02 11:02:27;;;;;;;2.70;1.17;;;;;;;24.39;34.14;98189.56;6240102;23;20048;-81
2022/09/02 11:05:12;;;;;;;1.05;0.90;;;;;;;24.62;34.08;98183.38;6241118;23;20794;-81
2022/09/02 11:07:54;;;;;;;1.23;0.90;;;;;;;24.39;33.07;98176.16;6241778;23;20017;-86
2022/09/02 11:10:59;;;;;;;2.58;0.90;;;;;;;24.01;34.03;98184.88;6217069;23;20468;-86
2022/09/02 11:13:53;;;;;;;1.20;1.10;;;;;;;23.92;34.55;98177.75;6226287;23;20521;-89
2022/09/02 11:16:45;;;;;;;1.10;0.95;;;;;;;23.82;34.30;98180.56;6243352;23;20016;-88
2022/09/02 11:19:27;;;;;;;1.20;1.10;;;;;;;23.63;34.46;98189.31;6243251;23;20012;-88
2022/09/02 11:22:23;;;;;;;1.23;1.00;;;;;;;23.82;34.59;98177.88;6216518;23;20026;-86
2022/09/02 11:25:36;;;;;;;1.02;1.00;;;;;;;23.83;34.15;98176.78;6215463;23;20445;-87
2022/09/02 11:28:48;;;;;;;1.10;1.00;;;;;;;23.89;34.26;98164.94;6196958;23;20633;-86
2022/09/02 11:31:41;;;;;;;1.13;1.02;;;;;;;23.82;33.42;98159.13;6188238;23;20050;-86
2022/09/02 11:34:35;;;;;;;1.15;1.05;;;;;;;24.00;33.21;98166.44;6216674;23;20074;-87
2022/09/02 11:37:41;;;;;;;1.15;1.05;;;;;;;23.63;34.21;98167.88;6244598;23;20109;-89
2022/09/02 11:40:25;;;;;;;1.23;1.10;;;;;;;23.18;34.52;98167.16;6242334;23;20062;-86
2022/09/02 11:43:18;;;;;;;1.25;1.00;;;;;;;23.25;35.24;98161.47;6242462;23;20071;-84
2022/09/02 11:46:09;;;;;;;1.02;1.00;;;;;;;23.22;34.68;98162.06;6242737;23;20026;-86
2022/09/02 11:49:32;;;;;;;0.90;0.90;;;;;;;22.93;34.35;98159.31;6242076;23;20016;-86
2022/09/02 11:52:18;;;;;;;2.33;1.20;;;;;;;22.69;35.32;98159.97;6226712;23;20024;-86
2022/09/02 11:54:49;;;;;;;1.00;1.00;;;;;;;22.67;36.17;98153.28;6212272;23;20070;-87
2022/09/02 11:57:23;;;;;;;1.27;1.10;;;;;;;22.76;36.10;98150.84;6242547;23;20016;-86
2022/09/02 11:59:50;;;;;;;0.80;0.80;;;;;;;22.97;35.07;98141.66;6242972;23;20024;-87
2022/09/02 12:02:58;;;;;;;0.98;0.90;;;;;;;23.41;36.04;98148.78;6242170;23;20016;-86
2022/09/02 12:05:29;;;;;;;2.60;1.00;;;;;;;23.53;33.64;98140.38;6242563;23;20024;-86
2022/09/02 12:08:03;;;;;;;4.60;1.20;;;;;;;23.43;33.64;98134.03;6242467;23;20012;-87
2022/09/02 12:10:42;;;;;;;0.90;0.90;;;;;;;23.57;33.63;98130.69;6241884;23;20016;-85
2022/09/02 12:13:43;;;;;;;1.30;1.00;;;;;;;23.25;34.23;98134.72;6238144;23;20062;-84
2022/09/02 12:16:18;;;;;;;0.80;0.80;;;;;;;23.24;33.81;98131.25;6213357;23;20016;-84
2022/09/02 12:19:07;;;;;;;1.40;0.80;;;;;;;23.67;35.01;98130.59;6239656;23;20066;-85